Time;durP1;ratioP1;P1;durP2;ratioP2;P2;SDS_P1;SDS_P2;PMS_P1;PMS_P2;Temp;Humidity;BMP_temperature;BMP_pressure;BME280_temperature;BME280_humidity;BME280_pressure;Samples;Min_cycle;Max_cycle;Signal;HPM_P1;HPM_P2
2023/01/06 00:00:12;;;;;;;1.57;1.03;;;;;16.50;100750.00;;;;2078098;28;20209;-54
2023/01/06 00:01:15;;;;;;;1.93;1.20;;;;;16.50;100762.00;;;;2077999;28;20287;-54
2023/01/06 00:02:15;;;;;;;1.25;0.93;;;;;16.50;100758.00;;;;2076422;28;20225;-54
2023/01/06 00:03:16;;;;;;;1.20;1.00;;;;;16.50;100757.00;;;;2077878;28;20263;-54
2023/01/06 00:04:16;;;;;;;1.67;1.13;;;;;16.50;100750.00;;;;2077724;28;20224;-54
2023/01/06 00:05:16;;;;;;;1.73;1.33;;;;;16.50;100753.00;;;;2077792;28;20210;-54
2023/01/06 00:06:17;;;;;;;1.63;1.00;;;;;16.50;100754.00;;;;2078017;28;20256;-54
2023/01/06 00:07:17;;;;;;;1.03;0.83;;;;;16.50;100747.00;;;;2077755;28;20221;-54
2023/01/06 00:08:18;;;;;;;1.60;1.10;;;;;16.50;100750.00;;;;2078023;28;20330;-54
2023/01/06 00:09:18;;;;;;;1.60;1.20;;;;;16.50;100747.00;;;;2078293;28;20214;-54
2023/01/06 00:10:18;;;;;;;1.20;1.00;;;;;16.50;100751.00;;;;2077866;28;20232;-54
2023/01/06 00:11:19;;;;;;;1.87;1.00;;;;;16.50;100751.00;;;;2077896;28;20210;-54
2023/01/06 00:12:19;;;;;;;1.67;0.83;;;;;16.50;100749.00;;;;2076490;28;20217;-54
2023/01/06 00:13:20;;;;;;;1.50;1.20;;;;;16.50;100753.00;;;;2077978;28;20690;-54
2023/01/06 00:14:20;;;;;;;1.50;1.10;;;;;16.50;100749.00;;;;2077502;28;20247;-54
2023/01/06 00:15:20;;;;;;;1.80;1.20;;;;;16.50;100745.00;;;;2077942;28;20267;-54
2023/01/06 00:16:21;;;;;;;1.40;1.10;;;;;16.50;100746.00;;;;2077938;28;20220;-54
2023/01/06 00:17:21;;;;;;;1.53;1.00;;;;;16.50;100741.00;;;;2077962;28;20209;-54
2023/01/06 00:18:22;;;;;;;1.70;0.90;;;;;16.50;100744.00;;;;2076894;28;20212;-54
2023/01/06 00:19:22;;;;;;;1.90;1.20;;;;;16.50;100738.00;;;;2077085;28;20216;-54
2023/01/06 00:20:22;;;;;;;1.57;1.00;;;;;16.50;100726.00;;;;2077849;28;20206;-54
2023/01/06 00:21:23;;;;;;;1.40;1.20;;;;;16.50;100731.00;;;;2077033;28;20314;-54
2023/01/06 00:22:23;;;;;;;1.63;1.03;;;;;16.50;100734.00;;;;2075400;28;20242;-54
2023/01/06 00:23:23;;;;;;;1.30;1.13;;;;;16.50;100737.00;;;;2077628;28;20233;-54
2023/01/06 00:24:24;;;;;;;1.20;0.90;;;;;16.50;100725.00;;;;2076713;28;20210;-54
2023/01/06 00:25:24;;;;;;;1.80;1.10;;;;;16.50;100732.00;;;;2076893;28;20213;-53
2023/01/06 00:26:25;;;;;;;1.37;0.93;;;;;16.50;100727.00;;;;2077303;28;20206;-54
2023/01/06 00:27:25;;;;;;;2.10;1.00;;;;;16.50;100731.00;;;;2077552;28;20289;-54
2023/01/06 00:28:25;;;;;;;1.30;1.00;;;;;16.50;100732.00;;;;2076939;28;20216;-54
2023/01/06 00:29:26;;;;;;;1.23;0.80;;;;;16.50;100738.00;;;;2076921;28;20255;-54
2023/01/06 00:30:26;;;;;;;1.53;1.10;;;;;16.50;100730.00;;;;2077757;28;20202;-54
2023/01/06 00:31:26;;;;;;;1.00;0.90;;;;;16.50;100724.00;;;;2077033;28;20795;-54
2023/01/06 00:32:27;;;;;;;1.87;1.30;;;;;16.50;100729.00;;;;2076147;28;20694;-54
2023/01/06 00:33:27;;;;;;;1.80;0.93;;;;;16.50;100735.00;;;;2077493;28;20210;-53
2023/01/06 00:34:28;;;;;;;1.53;1.10;;;;;16.50;100730.00;;;;2068688;28;20207;-54
2023/01/06 00:35:28;;;;;;;1.40;0.90;;;;;16.50;100730.00;;;;2068965;28;20217;-53
2023/01/06 00:36:29;;;;;;;1.50;1.10;;;;;16.50;100732.00;;;;2076787;28;20202;-53
2023/01/06 00:37:29;;;;;;;1.67;1.10;;;;;16.50;100731.00;;;;2076990;28;20210;-54
2023/01/06 00:38:30;;;;;;;1.60;1.20;;;;;16.50;100739.00;;;;2078134;28;20217;-54
2023/01/06 00:39:30;;;;;;;1.30;0.90;;;;;16.50;100731.00;;;;2078207;28;20309;-53
2023/01/06 00:40:30;;;;;;;1.10;0.90;;;;;16.50;100734.00;;;;2077716;28;20228;-53
2023/01/06 00:42:49;;;;;;;1.95;1.02;;;;;16.50;100730.00;;;;2072090;28;20629;-53
2023/01/06 00:43:50;;;;;;;1.57;1.10;;;;;16.50;100726.00;;;;2069132;28;20297;-53
2023/01/06 00:44:50;;;;;;;1.27;0.93;;;;;16.40;100721.00;;;;2069896;28;20230;-53
2023/01/06 00:45:51;;;;;;;1.50;1.07;;;;;16.40;100719.00;;;;2069943;28;20248;-53
2023/01/06 00:46:51;;;;;;;1.67;1.10;;;;;16.50;100722.00;;;;2071513;28;20225;-54
2023/01/06 00:47:51;;;;;;;1.00;0.90;;;;;16.50;100726.00;;;;2079361;28;20636;-53
2023/01/06 00:48:52;;;;;;;2.13;1.10;;;;;16.50;100718.00;;;;2079599;28;20582;-53
2023/01/06 00:49:52;;;;;;;2.13;1.20;;;;;16.50;100723.00;;;;2079576;28;20884;-53
2023/01/06 00:50:59;;;;;;;1.63;1.10;;;;;16.50;100718.00;;;;2079142;28;20686;-54
2023/01/06 00:51:59;;;;;;;1.70;0.98;;;;;16.50;100717.00;;;;2078107;28;20217;-54
2023/01/06 00:52:59;;;;;;;1.50;1.07;;;;;16.40;100716.00;;;;2079507;28;20773;-54
2023/01/06 00:54:00;;;;;;;1.50;1.07;;;;;16.50;100708.00;;;;2079550;28;20720;-54
2023/01/06 00:55:00;;;;;;;1.87;0.93;;;;;16.50;100719.00;;;;2079697;28;20651;-54
2023/01/06 00:56:01;;;;;;;1.07;0.80;;;;;16.50;100712.00;;;;2079364;28;20209;-54
2023/01/06 00:57:01;;;;;;;1.33;1.00;;;;;16.50;100710.00;;;;2079566;28;20214;-53
2023/01/06 00:58:01;;;;;;;1.00;0.83;;;;;16.50;100707.00;;;;2079411;28;20216;-54
2023/01/06 00:59:02;;;;;;;1.30;1.00;;;;;16.50;100701.00;;;;2079471;28;20213;-54
2023/01/06 01:00:02;;;;;;;1.10;1.00;;;;;16.30;100705.00;;;;2079136;28;20209;-54
2023/01/06 01:01:06;;;;;;;1.33;0.90;;;;;16.50;100714.00;;;;2079535;28;20209;-54
2023/01/06 01:02:07;;;;;;;1.17;0.90;;;;;16.40;100706.00;;;;2078128;28;20682;-54
2023/01/06 01:03:07;;;;;;;1.20;0.90;;;;;16.50;100703.00;;;;2079236;28;20218;-54
2023/01/06 01:04:07;;;;;;;1.70;0.90;;;;;16.50;100704.00;;;;2079533;28;20201;-54
2023/01/06 01:05:08;;;;;;;1.90;1.00;;;;;16.40;100707.00;;;;2079156;28;20263;-54
2023/01/06 01:06:08;;;;;;;1.10;0.73;;;;;16.50;100699.00;;;;2079374;28;20283;-54
2023/01/06 01:07:09;;;;;;;0.93;0.80;;;;;16.50;100702.00;;;;2078811;28;20220;-54
2023/01/06 01:08:09;;;;;;;1.77;1.10;;;;;16.40;100700.00;;;;2078320;28;20214;-54
2023/01/06 01:09:14;;;;;;;1.57;1.00;;;;;16.50;100699.00;;;;2079556;28;20247;-54
2023/01/06 01:10:15;;;;;;;1.42;1.10;;;;;16.50;100711.00;;;;2075877;28;20300;-54
2023/01/06 01:12:08;;;;;;;1.03;0.83;;;;;16.50;100705.00;;;;2079357;28;20283;-54
2023/01/06 01:12:35;;;;;;;1.15;0.88;;;;;16.40;100712.00;;;;2077287;28;20286;-54
2023/01/06 01:13:36;;;;;;;1.10;0.90;;;;;16.50;100712.00;;;;2079516;28;20697;-54
2023/01/06 01:14:38;;;;;;;0.90;0.80;;;;;16.50;100713.00;;;;2079407;28;20740;-54
2023/01/06 01:15:38;;;;;;;1.00;0.80;;;;;16.50;100707.00;;;;2076034;28;20263;-54
2023/01/06 01:16:38;;;;;;;1.50;0.90;;;;;16.50;100716.00;;;;2079507;28;20739;-54
2023/01/06 01:17:39;;;;;;;1.40;0.90;;;;;16.50;100716.00;;;;2079307;28;20210;-54
2023/01/06 01:18:40;;;;;;;1.42;0.90;;;;;16.50;100717.00;;;;2079116;28;20224;-54
2023/01/06 01:19:40;;;;;;;1.53;0.90;;;;;16.50;100712.00;;;;2078881;28;20287;-54
2023/01/06 01:20:40;;;;;;;1.20;0.77;;;;;16.50;100723.00;;;;2070409;28;20228;-54
2023/01/06 01:21:41;;;;;;;1.53;0.83;;;;;16.50;100721.00;;;;2054013;28;20219;-54
2023/01/06 01:22:41;;;;;;;1.13;0.80;;;;;16.40;100715.00;;;;2069245;28;20246;-54
2023/01/06 01:23:41;;;;;;;1.10;0.80;;;;;16.40;100715.00;;;;2078113;28;20213;-54
2023/01/06 01:24:42;;;;;;;1.33;0.73;;;;;16.40;100721.00;;;;2079266;28;20252;-54
2023/01/06 01:25:42;;;;;;;1.40;1.00;;;;;16.50;100719.00;;;;2079102;28;21837;-54
2023/01/06 01:26:43;;;;;;;1.57;0.97;;;;;16.50;100719.00;;;;2079193;28;20263;-54
2023/01/06 01:27:43;;;;;;;1.20;0.80;;;;;16.40;100711.00;;;;2078837;28;20303;-54
2023/01/06 01:28:43;;;;;;;1.30;0.80;;;;;16.50;100714.00;;;;2079209;28;20221;-54
2023/01/06 01:29:44;;;;;;;1.20;1.00;;;;;16.40;100711.00;;;;2079048;28;20257;-54
2023/01/06 01:30:44;;;;;;;1.20;1.07;;;;;16.50;100715.00;;;;2079204;28;20320;-54
2023/01/06 01:31:44;;;;;;;1.50;1.00;;;;;16.50;100726.00;;;;2078879;28;20237;-54
2023/01/06 01:32:45;;;;;;;1.60;0.93;;;;;16.40;100719.00;;;;2078174;28;20229;-54
2023/01/06 01:33:45;;;;;;;1.00;0.90;;;;;16.50;100723.00;;;;2078733;28;20280;-55
2023/01/06 01:34:45;;;;;;;1.40;0.90;;;;;16.50;100714.00;;;;2077895;28;20213;-54
2023/01/06 01:35:46;;;;;;;1.00;0.70;;;;;16.50;100717.00;;;;2078821;28;20228;-54
2023/01/06 01:36:47;;;;;;;2.03;1.20;;;;;16.50;100723.00;;;;2078286;28;20657;-54
2023/01/06 01:37:47;;;;;;;0.85;0.70;;;;;16.50;100723.00;;;;2078034;28;20218;-54
2023/01/06 01:38:47;;;;;;;1.73;0.80;;;;;16.50;100721.00;;;;2079161;28;20580;-54
2023/01/06 01:39:48;;;;;;;0.97;0.70;;;;;16.50;100726.00;;;;2077646;28;20351;-54
2023/01/06 01:40:48;;;;;;;1.43;0.90;;;;;16.50;100720.00;;;;2077677;28;20225;-54
2023/01/06 01:41:49;;;;;;;1.87;1.00;;;;;16.50;100717.00;;;;2077260;28;20213;-54
2023/01/06 01:42:49;;;;;;;1.10;0.80;;;;;16.50;100716.00;;;;2078611;28;20221;-54
2023/01/06 01:43:50;;;;;;;0.90;0.80;;;;;16.50;100721.00;;;;2079125;28;20285;-54
2023/01/06 01:45:05;;;;;;;1.35;0.90;;;;;16.50;100714.00;;;;2079149;28;21166;-54
2023/01/06 01:46:05;;;;;;;1.77;0.70;;;;;16.50;100715.00;;;;2078736;28;20213;-54
2023/01/06 01:47:05;;;;;;;1.50;0.80;;;;;16.50;100715.00;;;;2079021;28;20201;-54
2023/01/06 01:48:30;;;;;;;1.40;0.90;;;;;16.40;100713.00;;;;2078875;28;20221;-54
2023/01/06 01:49:31;;;;;;;1.75;0.85;;;;;16.50;100712.00;;;;2069579;28;20726;-54
2023/01/06 01:50:37;;;;;;;1.37;0.80;;;;;16.50;100705.00;;;;2058049;28;20218;-54
2023/01/06 01:51:39;;;;;;;1.20;0.90;;;;;16.50;100721.00;;;;2062441;28;20883;-54
2023/01/06 01:52:40;;;;;;;1.17;0.90;;;;;16.50;100712.00;;;;2068651;28;20222;-54
2023/01/06 01:53:45;;;;;;;0.87;0.73;;;;;16.50;100715.00;;;;2069617;28;20226;-54
2023/01/06 01:54:46;;;;;;;1.10;0.75;;;;;16.50;100714.00;;;;2062313;28;20637;-54
2023/01/06 01:55:47;;;;;;;1.13;0.87;;;;;16.40;100706.00;;;;2061538;28;20215;-54
2023/01/06 01:56:51;;;;;;;1.08;0.90;;;;;16.50;100707.00;;;;2077909;28;20291;-54
2023/01/06 01:57:55;;;;;;;1.20;0.95;;;;;16.50;100713.00;;;;2076037;28;20729;-54
2023/01/06 01:59:05;;;;;;;0.95;0.57;;;;;16.50;100712.00;;;;2069661;28;20214;-54
2023/01/06 02:00:06;;;;;;;1.00;0.80;;;;;16.40;100705.00;;;;2062344;28;20215;-54
2023/01/06 02:01:07;;;;;;;1.05;0.70;;;;;16.50;100704.00;;;;2054107;28;20402;-54
2023/01/06 02:02:08;;;;;;;0.90;0.70;;;;;16.50;100704.00;;;;2060435;28;20229;-54
2023/01/06 02:03:08;;;;;;;1.10;0.70;;;;;16.50;100709.00;;;;2075634;28;20312;-54
2023/01/06 02:04:08;;;;;;;1.67;1.00;;;;;16.50;100702.00;;;;2075569;28;20375;-54
2023/01/06 02:05:10;;;;;;;1.07;0.80;;;;;16.50;100705.00;;;;2068969;28;20568;-54
2023/01/06 02:06:19;;;;;;;1.50;0.90;;;;;16.50;100704.00;;;;2061749;28;20799;-54
2023/01/06 02:07:20;;;;;;;1.38;0.80;;;;;16.50;100701.00;;;;2070722;28;20321;-53
2023/01/06 02:08:39;;;;;;;1.05;0.70;;;;;16.50;100703.00;;;;2069940;28;20219;-54
2023/01/06 02:09:45;;;;;;;0.90;0.70;;;;;16.50;100706.00;;;;2053337;28;20212;-54
2023/01/06 02:10:46;;;;;;;1.00;0.70;;;;;16.50;100704.00;;;;2055372;28;20855;-54
2023/01/06 02:11:49;;;;;;;1.33;0.80;;;;;16.40;100715.00;;;;2069328;28;20289;-54
2023/01/06 02:12:52;;;;;;;1.17;0.90;;;;;16.50;100704.00;;;;2069695;28;20258;-54
2023/01/06 02:13:59;;;;;;;1.60;1.05;;;;;16.40;100696.00;;;;2069990;28;20708;-54
2023/01/06 02:14:59;;;;;;;0.85;0.75;;;;;16.50;100701.00;;;;2061781;28;20221;-54
2023/01/06 02:16:25;;;;;;;1.33;0.90;;;;;16.50;100696.00;;;;2062329;28;20323;-54
2023/01/06 02:18:02;;;;;;;1.35;1.00;;;;;16.50;100698.00;;;;2077404;28;20221;-54
2023/01/06 02:19:55;;;;;;;0.90;0.63;;;;;16.40;100701.00;;;;2074200;28;20730;-54
2023/01/06 02:21:09;;;;;;;1.00;0.70;;;;;16.50;100694.00;;;;2070536;28;20206;-54
2023/01/06 02:22:15;;;;;;;1.05;0.70;;;;;16.50;100705.00;;;;2067417;28;21234;-53
2023/01/06 02:23:22;;;;;;;1.35;0.93;;;;;16.50;100700.00;;;;2069881;28;20253;-54
2023/01/06 02:24:46;;;;;;;1.00;0.80;;;;;16.50;100695.00;;;;2070353;28;20210;-54
2023/01/06 02:26:43;;;;;;;1.55;0.70;;;;;16.50;100692.00;;;;2075869;28;20218;-53
2023/01/06 02:27:44;;;;;;;1.45;0.70;;;;;16.50;100697.00;;;;2068404;28;20214;-54
2023/01/06 02:29:25;;;;;;;0.90;0.70;;;;;16.40;100699.00;;;;2068948;28;20251;-54
2023/01/06 02:30:53;;;;;;;1.42;0.80;;;;;16.40;100701.00;;;;2024330;29;20218;-54
2023/01/06 02:31:53;;;;;;;1.05;0.70;;;;;16.50;100698.00;;;;2023262;29;20257;-54
2023/01/06 02:33:15;;;;;;;0.93;0.60;;;;;16.40;100688.00;;;;2018297;29;20334;-54
2023/01/06 02:34:25;;;;;;;0.80;0.68;;;;;16.40;100696.00;;;;2036818;29;20220;-54
2023/01/06 02:35:42;;;;;;;1.00;0.80;;;;;16.40;100696.00;;;;2034576;29;20221;-54
2023/01/06 02:37:02;;;;;;;1.88;0.70;;;;;16.40;100695.00;;;;2070295;28;20264;-53
2023/01/06 02:38:32;;;;;;;0.95;0.65;;;;;16.40;100683.00;;;;2077076;28;20213;-54
2023/01/06 02:39:51;;;;;;;1.50;0.85;;;;;16.40;100676.00;;;;2069846;28;20214;-54
2023/01/06 02:41:13;;;;;;;1.10;0.70;;;;;16.40;100679.00;;;;2077976;28;20244;-53
2023/01/06 02:42:27;;;;;;;1.13;0.70;;;;;16.30;100675.00;;;;2074281;28;20209;-53
2023/01/06 02:43:35;;;;;;;1.00;0.70;;;;;16.40;100678.00;;;;2068919;28;20210;-54
2023/01/06 02:44:59;;;;;;;1.00;0.85;;;;;16.50;100677.00;;;;2055778;28;20239;-56
2023/01/06 02:46:30;;;;;;;1.25;0.70;;;;;16.40;100675.00;;;;2068510;28;20236;-54
2023/01/06 02:48:01;;;;;;;0.90;0.70;;;;;16.40;100676.00;;;;2074264;28;20214;-54
2023/01/06 02:49:11;;;;;;;1.17;0.75;;;;;16.50;100665.00;;;;2076249;28;20282;-54
2023/01/06 02:50:26;;;;;;;0.90;0.60;;;;;16.50;100670.00;;;;2062592;28;20214;-54
2023/01/06 02:51:44;;;;;;;1.00;0.60;;;;;16.40;100672.00;;;;2072159;28;20256;-54
2023/01/06 02:52:46;;;;;;;1.20;0.80;;;;;16.40;100664.00;;;;2076461;28;20213;-54
2023/01/06 02:53:59;;;;;;;1.55;0.80;;;;;16.50;100668.00;;;;2061410;28;20664;-54
2023/01/06 02:55:04;;;;;;;0.80;0.60;;;;;16.40;100670.00;;;;2057904;28;20220;-54
2023/01/06 02:56:04;;;;;;;1.20;0.80;;;;;16.40;100676.00;;;;2069471;28;20237;-54
2023/01/06 02:57:13;;;;;;;1.30;0.60;;;;;16.40;100668.00;;;;2077296;28;20214;-54
2023/01/06 02:58:23;;;;;;;1.08;0.90;;;;;16.40;100670.00;;;;2077383;28;20219;-54
2023/01/06 02:59:30;;;;;;;1.10;0.70;;;;;16.40;100628.00;;;;2070827;28;20210;-54
2023/01/06 03:00:38;;;;;;;0.80;0.70;;;;;16.50;100674.00;;;;2071591;28;20782;-54
2023/01/06 03:01:40;;;;;;;1.10;0.70;;;;;16.50;100667.00;;;;2070300;28;20222;-54
2023/01/06 03:02:41;;;;;;;1.08;0.80;;;;;16.50;100671.00;;;;2068059;28;20303;-54
2023/01/06 03:03:43;;;;;;;2.15;0.80;;;;;16.50;100666.00;;;;2068076;28;20202;-54
2023/01/06 03:04:44;;;;;;;1.33;0.73;;;;;16.50;100669.00;;;;2069154;28;20219;-54
2023/01/06 03:05:45;;;;;;;0.90;0.70;;;;;16.30;100663.00;;;;2061577;28;20902;-54
2023/01/06 03:06:47;;;;;;;1.20;0.75;;;;;16.50;100665.00;;;;2061453;28;20207;-54
2023/01/06 03:07:47;;;;;;;1.38;0.70;;;;;16.50;100664.00;;;;2048733;28;20604;-54
2023/01/06 03:08:47;;;;;;;0.87;0.70;;;;;16.50;100657.00;;;;2053608;28;20220;-54
2023/01/06 03:09:48;;;;;;;0.90;0.60;;;;;16.50;100647.00;;;;2069064;28;20218;-54
2023/01/06 03:10:48;;;;;;;1.10;0.60;;;;;16.50;100650.00;;;;2069035;28;20225;-54
2023/01/06 03:11:50;;;;;;;1.03;0.63;;;;;16.50;100650.00;;;;2060426;28;20229;-54
2023/01/06 03:12:52;;;;;;;1.00;0.90;;;;;16.40;100651.00;;;;2066672;28;20254;-54
2023/01/06 03:13:57;;;;;;;1.00;0.70;;;;;16.50;100650.00;;;;2076483;28;20236;-54
2023/01/06 03:14:57;;;;;;;1.10;0.63;;;;;16.50;100647.00;;;;2070014;28;20957;-54
2023/01/06 03:15:57;;;;;;;0.87;0.70;;;;;16.50;100646.00;;;;2077528;28;20222;-54
2023/01/06 03:16:59;;;;;;;1.00;0.70;;;;;16.50;100648.00;;;;2077455;28;20227;-54
2023/01/06 03:17:59;;;;;;;1.00;0.63;;;;;16.50;100650.00;;;;2077656;28;20210;-54
2023/01/06 03:19:00;;;;;;;1.00;0.53;;;;;16.50;100648.00;;;;2078221;28;20206;-54
2023/01/06 03:20:01;;;;;;;1.63;0.73;;;;;16.40;100635.00;;;;2077807;28;20304;-54
2023/01/06 03:21:04;;;;;;;0.70;0.67;;;;;16.40;100644.00;;;;2069400;28;20450;-54
2023/01/06 03:22:04;;;;;;;1.13;0.60;;;;;16.50;100639.00;;;;2068328;28;20218;-54
2023/01/06 03:23:04;;;;;;;0.97;0.63;;;;;16.40;100632.00;;;;2060995;28;20710;-54
2023/01/06 03:24:06;;;;;;;0.70;0.63;;;;;16.50;100632.00;;;;2061256;28;20215;-53
2023/01/06 03:25:07;;;;;;;0.80;0.70;;;;;16.40;100640.00;;;;2067979;28;20226;-54
2023/01/06 03:26:08;;;;;;;1.45;0.80;;;;;16.40;100634.00;;;;2077256;28;20210;-54
2023/01/06 03:27:08;;;;;;;0.83;0.53;;;;;16.50;100636.00;;;;2077545;28;20671;-54
2023/01/06 03:28:08;;;;;;;1.00;0.60;;;;;16.50;100630.00;;;;2077489;28;20300;-54
2023/01/06 03:29:09;;;;;;;0.80;0.60;;;;;16.50;100632.00;;;;2078245;28;20580;-54
2023/01/06 03:30:10;;;;;;;1.13;0.90;;;;;16.50;100632.00;;;;2077018;28;20703;-54
2023/01/06 03:31:19;;;;;;;1.33;0.80;;;;;16.40;100633.00;;;;2061329;28;20218;-55
2023/01/06 03:32:39;;;;;;;0.90;0.60;;;;;16.50;100624.00;;;;2068614;28;20224;-54
2023/01/06 03:33:51;;;;;;;1.10;0.70;;;;;16.50;100616.00;;;;2071692;28;20288;-54
2023/01/06 03:35:13;;;;;;;1.13;0.68;;;;;16.50;100627.00;;;;2062489;28;20218;-54
2023/01/06 03:36:43;;;;;;;1.70;0.95;;;;;16.50;100622.00;;;;2077086;28;20219;-54
2023/01/06 03:38:15;;;;;;;0.80;0.55;;;;;16.50;100623.00;;;;2059866;28;20242;-54
2023/01/06 03:39:24;;;;;;;1.10;0.68;;;;;16.40;100621.00;;;;2077420;28;20225;-54
2023/01/06 03:40:30;;;;;;;0.80;0.60;;;;;16.40;100618.00;;;;2074305;28;20237;-54
2023/01/06 03:43:14;;;;;;;0.95;0.70;;;;;16.50;100627.00;;;;2063396;28;20223;-54
2023/01/06 03:44:21;;;;;;;0.82;0.57;;;;;16.40;100621.00;;;;2065953;28;20695;-54
2023/01/06 03:45:28;;;;;;;1.08;0.70;;;;;16.40;100624.00;;;;2062613;28;20214;-54
2023/01/06 03:46:33;;;;;;;1.00;0.60;;;;;16.40;100620.00;;;;2061243;28;20207;-54
2023/01/06 03:47:40;;;;;;;0.85;0.70;;;;;16.50;100622.00;;;;2058758;28;20682;-54
2023/01/06 03:48:55;;;;;;;0.90;0.68;;;;;16.40;100621.00;;;;2061958;28;20957;-53
2023/01/06 03:50:16;;;;;;;0.82;0.70;;;;;16.40;100613.00;;;;2076921;28;20213;-54
2023/01/06 03:51:27;;;;;;;1.08;0.70;;;;;16.50;100617.00;;;;2077271;28;20296;-54
2023/01/06 03:52:29;;;;;;;1.23;0.60;;;;;16.50;100607.00;;;;2070529;28;20242;-54
2023/01/06 03:53:54;;;;;;;1.00;0.60;;;;;16.40;100615.00;;;;2069311;28;20218;-54
2023/01/06 03:55:12;;;;;;;1.02;0.50;;;;;16.40;100603.00;;;;2073048;28;20213;-54
2023/01/06 03:56:25;;;;;;;0.82;0.60;;;;;16.40;100613.00;;;;2072649;28;20316;-54
2023/01/06 03:57:33;;;;;;;0.85;0.63;;;;;16.40;100612.00;;;;2077471;28;20278;-54
2023/01/06 03:58:33;;;;;;;0.82;0.57;;;;;16.40;100613.00;;;;2069064;28;20210;-54
2023/01/06 03:59:36;;;;;;;0.70;0.60;;;;;16.40;100611.00;;;;2059131;28;20929;-54
2023/01/06 04:00:36;;;;;;;1.00;0.68;;;;;16.40;100611.00;;;;2061376;28;20211;-54
2023/01/06 04:01:37;;;;;;;1.10;0.70;;;;;16.40;100615.00;;;;2069326;28;20198;-54
2023/01/06 04:02:38;;;;;;;0.70;0.47;;;;;16.40;100610.00;;;;2067897;28;20373;-54
2023/01/06 04:03:38;;;;;;;0.93;0.70;;;;;16.40;100595.00;;;;2060848;28;20563;-54
2023/01/06 04:04:38;;;;;;;0.77;0.53;;;;;16.40;100613.00;;;;2069014;28;20309;-54
2023/01/06 04:05:39;;;;;;;0.83;0.70;;;;;16.40;100607.00;;;;2077119;28;20209;-54
2023/01/06 04:06:39;;;;;;;1.30;0.83;;;;;16.50;100601.00;;;;2078081;28;20206;-54
2023/01/06 04:07:40;;;;;;;0.97;0.80;;;;;16.40;100603.00;;;;2078133;28;20259;-54
2023/01/06 04:08:40;;;;;;;0.80;0.50;;;;;16.40;100602.00;;;;2077845;28;20221;-54
2023/01/06 04:09:40;;;;;;;1.17;0.67;;;;;16.50;100596.00;;;;2078160;28;20522;-54
2023/01/06 04:10:41;;;;;;;1.00;0.70;;;;;16.50;100602.00;;;;2078075;28;20233;-54
2023/01/06 04:13:00;;;;;;;0.95;0.70;;;;;16.40;100587.00;;;;2077697;28;20217;-54
2023/01/06 04:14:00;;;;;;;0.83;0.77;;;;;16.40;100595.00;;;;2071792;28;20213;-54
2023/01/06 04:15:01;;;;;;;0.97;0.60;;;;;16.40;100600.00;;;;2085049;28;20213;-54
2023/01/06 04:16:01;;;;;;;1.13;0.63;;;;;16.40;100601.00;;;;2080499;28;20256;-54
2023/01/06 04:17:01;;;;;;;1.27;0.70;;;;;16.40;100598.00;;;;2077832;28;20217;-54
2023/01/06 04:18:02;;;;;;;0.87;0.63;;;;;16.40;100594.00;;;;2077844;28;20217;-54
2023/01/06 04:19:02;;;;;;;1.57;0.60;;;;;16.40;100602.00;;;;2077679;28;20722;-54
2023/01/06 04:20:04;;;;;;;1.00;0.60;;;;;16.40;100596.00;;;;2077480;28;20615;-53
2023/01/06 04:21:04;;;;;;;1.25;0.52;;;;;16.40;100596.00;;;;2077101;28;20287;-54
2023/01/06 04:22:04;;;;;;;0.70;0.60;;;;;16.40;100601.00;;;;2077691;28;20767;-54
2023/01/06 04:23:05;;;;;;;0.90;0.60;;;;;16.40;100596.00;;;;2079671;28;20648;-54
2023/01/06 04:24:05;;;;;;;0.80;0.70;;;;;16.40;100594.00;;;;2079342;28;20209;-54
2023/01/06 04:25:06;;;;;;;0.90;0.60;;;;;16.40;100588.00;;;;2079547;28;20264;-53
2023/01/06 04:26:06;;;;;;;0.80;0.50;;;;;16.40;100590.00;;;;2079511;28;20202;-54
2023/01/06 04:27:07;;;;;;;0.73;0.63;;;;;16.40;100596.00;;;;2079650;28;20275;-54
2023/01/06 04:28:07;;;;;;;0.70;0.50;;;;;16.40;100593.00;;;;2079462;28;20226;-54
2023/01/06 04:29:07;;;;;;;0.93;0.70;;;;;16.50;100594.00;;;;2079743;28;20225;-54
2023/01/06 04:30:08;;;;;;;1.30;0.77;;;;;16.40;100580.00;;;;2079235;28;20217;-54
2023/01/06 04:31:08;;;;;;;0.80;0.60;;;;;16.40;100572.00;;;;2077005;28;20272;-54
2023/01/06 04:32:09;;;;;;;0.80;0.70;;;;;16.40;100566.00;;;;2077511;28;20255;-54
2023/01/06 04:33:09;;;;;;;1.10;0.70;;;;;16.40;100571.00;;;;2079538;28;20221;-54
2023/01/06 04:34:09;;;;;;;0.80;0.70;;;;;16.40;100559.00;;;;2079277;28;20218;-54
2023/01/06 04:35:10;;;;;;;1.00;0.77;;;;;16.40;100562.00;;;;2079377;28;20213;-54
2023/01/06 04:36:10;;;;;;;1.33;0.70;;;;;16.40;100555.00;;;;2079595;28;20248;-53
2023/01/06 04:37:10;;;;;;;0.73;0.60;;;;;16.40;100558.00;;;;2079404;28;20217;-54
2023/01/06 04:38:11;;;;;;;1.00;0.80;;;;;16.50;100556.00;;;;2079470;28;20210;-54
2023/01/06 04:39:11;;;;;;;1.00;0.63;;;;;16.50;100558.00;;;;2079665;28;20225;-54
2023/01/06 04:40:11;;;;;;;0.70;0.50;;;;;16.40;100555.00;;;;2079450;28;20300;-54
2023/01/06 04:41:12;;;;;;;1.00;0.50;;;;;16.50;100564.00;;;;2077455;28;20968;-54
2023/01/06 04:42:12;;;;;;;0.80;0.60;;;;;16.40;100557.00;;;;2078001;28;20248;-54
2023/01/06 04:43:15;;;;;;;1.00;0.60;;;;;16.40;100556.00;;;;2079402;28;20268;-54
2023/01/06 04:44:15;;;;;;;0.95;0.60;;;;;16.40;100552.00;;;;2079185;28;20214;-54
2023/01/06 04:45:15;;;;;;;0.70;0.50;;;;;16.40;100553.00;;;;2078956;28;20319;-54
2023/01/06 04:46:16;;;;;;;0.70;0.50;;;;;16.40;100549.00;;;;2079592;28;20209;-53
2023/01/06 04:47:16;;;;;;;0.90;0.70;;;;;16.50;100557.00;;;;2079531;28;20243;-54
2023/01/06 04:48:16;;;;;;;0.90;0.57;;;;;16.50;100554.00;;;;2079389;28;20233;-53
2023/01/06 04:49:17;;;;;;;0.80;0.50;;;;;16.40;100544.00;;;;2079626;28;20214;-54
2023/01/06 04:50:17;;;;;;;0.83;0.50;;;;;16.40;100544.00;;;;2079364;28;20698;-53
2023/01/06 04:51:17;;;;;;;0.90;0.53;;;;;16.40;100540.00;;;;2079333;28;20725;-54
2023/01/06 04:52:17;;;;;;;0.70;0.50;;;;;16.50;100556.00;;;;2077922;28;20718;-54
2023/01/06 04:53:18;;;;;;;1.97;0.60;;;;;16.40;100544.00;;;;2079430;28;20674;-54
2023/01/06 04:54:18;;;;;;;1.10;0.70;;;;;16.40;100538.00;;;;2079295;28;20217;-54
2023/01/06 04:55:18;;;;;;;1.07;0.60;;;;;16.50;100546.00;;;;2079282;28;20221;-54
2023/01/06 04:56:19;;;;;;;1.70;0.57;;;;;16.50;100537.00;;;;2079342;28;20233;-54
2023/01/06 04:57:19;;;;;;;0.90;0.80;;;;;16.40;100530.00;;;;2079353;28;20214;-54
2023/01/06 04:58:19;;;;;;;0.97;0.60;;;;;16.50;100536.00;;;;2079549;28;20275;-53
2023/01/06 04:59:20;;;;;;;0.70;0.53;;;;;16.40;100527.00;;;;2079363;28;20296;-54
2023/01/06 05:00:20;;;;;;;0.77;0.50;;;;;16.40;100537.00;;;;2073710;28;20370;-53
2023/01/06 05:01:21;;;;;;;1.10;0.63;;;;;16.40;100536.00;;;;2078445;28;20480;-53
2023/01/06 05:02:21;;;;;;;0.90;0.60;;;;;16.50;100537.00;;;;2069056;28;20682;-54
2023/01/06 05:03:21;;;;;;;0.70;0.53;;;;;16.40;100549.00;;;;2070364;28;20218;-54
2023/01/06 05:04:22;;;;;;;0.93;0.73;;;;;16.40;100540.00;;;;2075907;28;20221;-54
2023/01/06 05:05:22;;;;;;;0.80;0.50;;;;;16.40;100542.00;;;;2079152;28;20304;-54
2023/01/06 05:06:22;;;;;;;1.67;0.80;;;;;16.40;100553.00;;;;2078347;28;20221;-54
2023/01/06 05:07:23;;;;;;;0.80;0.50;;;;;16.40;100545.00;;;;2077390;28;20217;-54
2023/01/06 05:08:23;;;;;;;0.80;0.50;;;;;16.40;100538.00;;;;2079068;28;20226;-54
2023/01/06 05:09:23;;;;;;;1.20;0.80;;;;;16.40;100543.00;;;;2079350;28;20304;-54
2023/01/06 05:10:24;;;;;;;0.90;0.63;;;;;16.50;100534.00;;;;2079146;28;20702;-54
2023/01/06 05:11:24;;;;;;;1.40;0.80;;;;;16.40;100534.00;;;;2079020;28;20750;-54
2023/01/06 05:12:25;;;;;;;1.10;0.60;;;;;16.40;100528.00;;;;2077987;28;20601;-53
2023/01/06 05:13:25;;;;;;;1.10;0.60;;;;;16.40;100523.00;;;;2078485;28;20237;-53
2023/01/06 05:14:26;;;;;;;1.07;0.57;;;;;16.40;100526.00;;;;2078403;28;20217;-53
2023/01/06 05:15:26;;;;;;;0.73;0.50;;;;;16.50;100533.00;;;;2079365;28;20240;-54
2023/01/06 05:16:27;;;;;;;1.20;0.60;;;;;16.50;100530.00;;;;2079377;28;20217;-54
2023/01/06 05:17:27;;;;;;;0.70;0.60;;;;;16.40;100533.00;;;;2079277;28;20225;-54
2023/01/06 05:18:28;;;;;;;0.70;0.50;;;;;16.50;100526.00;;;;2079116;28;20213;-54
2023/01/06 05:19:28;;;;;;;1.10;0.83;;;;;16.50;100535.00;;;;2078719;28;20248;-54
2023/01/06 05:20:28;;;;;;;1.20;0.60;;;;;16.40;100535.00;;;;2078648;28;20256;-54